Glovertown, Canada
Current Conditions -  °F | °C
As of 12:00 AM on Sunday 26 Oct 2014 (Local Time) from CYQX Reporting Station
Light Rain Light Rain  
Wind Chill: 30°   Ceiling: 500
Heat Index: 39°   Visibility: 3mi
Dew Point: 39°   Wind: 18mph
Humidity: 100%   Direction: 50°NE
Pressure: 29.54"   Gusts: 28mph
Location:  48.67°N, 54.05°W
Report Text: CYQX 260200Z 05016G24KT 3SM -RA BR BKN005 OVC012 04/04 A2954 RMK SF7SC1 SLP008
Loading
Personal Weather Stations






























Interactive Weather Map
Tropical Storm Tracking
New forecast layout! Learn more

10-Day Weather Forecast

Advertisements
Track Severe Weather on mobile